Terminal Aerodrome Forecast
Issued by NWS Twin Cities, MN

Home | Current Version | Previous Version | Text Only | Print | Product List | Glossary Off
Versions: 1 2 3 4 5 6 7 8 9 10 11 12 13 14 15 16

000
FTUS43 KMPX 271100
TAFEAU
TAF
KEAU 271120Z 2712/2812 VRB02KT P6SM BKN100 BKN250
     FM271800 11005KT P6SM FEW120 SCT250
     FM280900 12004KT P6SM OVC130=

USA.gov is the U.S. government's official web portal to all federal, state and local government web resources and services.